Fairfield, Montana
Current Conditions -  °F | °C
As of 11:53 PM on Friday 24 Oct 2014 (Local Time) from KGTF Reporting Station
Overcast Overcast  
Wind Chill: 45°   Ceiling: 7500
Heat Index: 47°   Visibility: 10mi
Dew Point: 40°   Wind: 5mph
Humidity: 77%   Direction: 140°SE
Pressure: 30.06"   Gusts: NA
Location:  47.61°N, 111.98°W
Report Text: KGTF 250553Z 14004KT 10SM FEW060 OVC075 08/04 A3006 RMK AO2 SLP184 60000 T00830044 10117 20083 50000
Loading
Personal Weather Stations






























Interactive Weather Map
Tropical Storm Tracking
New forecast layout! Learn more

10-Day Weather Forecast

Advertisements
Track Severe Weather on mobile